首页
METAR-TAF:

METAR-TAF

机场 :

海口美兰国际机场

海口, 中华人民共和国

纬度: 19-56-05N, 经度: 110-27-32E, 海拔: 23米

当前天气观测

该预报发布于23分钟前的21:00 UTC
风速6节,风向东南,在南转南东之间变化
温度 27°C
湿度 94%
气压 1003 hPa
能见度10公里或以上
1500米以下无云,无积雨云

METAR: ZJHK 232100Z 13003MPS 100V160 CAVOK 27/26 Q1003 NOSIG

时间: 05:23 (21:23 UTC)

预报

该预报发布于6小时和18分钟前的15:05 UTC
预报有效从23日的 18点(UTC)到 24日的 18点(UTC)
风速8节,风向东南
能见度10公里或以上
散云层高于2000英尺
短暂存在
从 24日的 06点(UTC)到 24日的 12点(UTC)
散云层高于2000英尺
散云层高于2600英尺, 积雨云.
雷暴, 雨,

TAF: ZJHK 231505Z 2318/2418 14004MPS 9999 SCT020 TX32/2406Z TN26/2321Z TEMPO 2406/2412 TSRA SCT020 SCT026CB

超过4000个机场的气象观测和天气预报(METAR&TAF报告)。

可查询的气象台以黄色和红色小点在地图上表示。

将鼠标移到小点上方,可查看气象台名称。

然后点击查看天气观测和预报。

如需切换地图:点击带黑十字的绿色按钮放大地图;点击带横线的绿色按钮缩小地图;或者点击绿色箭头查看邻近地区的地图。


METAR-TAF: